createdAt,value
2019-03-13T00:05:40.800Z,1.90
2019-03-13T00:11:42.988Z,1.70
2019-03-13T00:17:45.174Z,1.70
2019-03-13T00:23:47.371Z,1.70
2019-03-13T00:29:49.511Z,1.70
2019-03-13T00:35:51.760Z,1.70
2019-03-13T00:41:54.099Z,1.60
2019-03-13T00:47:56.315Z,1.60
2019-03-13T00:53:58.548Z,1.70
2019-03-13T01:00:00.911Z,1.70
2019-03-13T01:06:11.480Z,1.70
2019-03-13T01:12:13.751Z,1.60
2019-03-13T01:18:16.061Z,1.70
2019-03-13T01:24:18.228Z,1.80
2019-03-13T01:30:20.431Z,1.80
2019-03-13T01:36:22.572Z,1.90
2019-03-13T01:42:24.953Z,1.90
2019-03-13T01:48:27.198Z,1.90
2019-03-13T01:54:29.387Z,1.90
2019-03-13T02:00:31.963Z,2.00
2019-03-13T02:06:34.373Z,2.00
2019-03-13T02:12:36.574Z,2.00
2019-03-13T02:18:38.816Z,1.90
2019-03-13T02:24:41.094Z,1.90
2019-03-13T02:30:43.433Z,1.90
2019-03-13T02:36:45.555Z,2.00
2019-03-13T02:42:47.889Z,2.00
2019-03-13T02:48:50.235Z,1.90
2019-03-13T02:54:53.503Z,1.90
2019-03-13T03:01:15.848Z,2.00
2019-03-13T03:07:18.055Z,2.00
2019-03-13T03:13:20.382Z,2.10
2019-03-13T03:19:22.578Z,2.10
2019-03-13T03:25:24.763Z,2.20
2019-03-13T03:31:26.966Z,2.40
2019-03-13T03:37:29.113Z,2.50
2019-03-13T03:43:40.319Z,2.70
2019-03-13T03:49:35.388Z,2.90
2019-03-13T03:55:37.540Z,3.00
2019-03-13T04:01:39.744Z,3.10
2019-03-13T04:07:42.122Z,3.30
2019-03-13T04:13:45.241Z,3.30
2019-03-13T04:19:47.939Z,3.30
2019-03-13T04:25:50.143Z,3.40
2019-03-13T04:31:52.381Z,3.40
2019-03-13T04:37:54.504Z,3.20
2019-03-13T04:43:56.773Z,3.10
2019-03-13T04:49:59.003Z,3.30
2019-03-13T04:56:01.219Z,3.40
2019-03-13T05:02:03.396Z,3.50
2019-03-13T05:08:05.728Z,3.40
2019-03-13T05:14:08.998Z,3.40
2019-03-13T05:20:13.749Z,3.60
2019-03-13T05:26:18.175Z,3.80
2019-03-13T05:32:20.380Z,3.80
2019-03-13T05:38:22.550Z,3.70
2019-03-13T05:44:24.940Z,3.70
2019-03-13T05:50:27.393Z,3.80
2019-03-13T05:56:29.567Z,3.80
2019-03-13T06:02:31.771Z,3.70
2019-03-13T06:08:33.993Z,3.70
2019-03-13T06:14:36.293Z,3.80
2019-03-13T06:20:38.704Z,3.70
2019-03-13T06:26:40.987Z,3.70
2019-03-13T06:32:43.320Z,3.70
2019-03-13T06:38:45.670Z,3.80
2019-03-13T06:44:51.103Z,3.90
2019-03-13T06:50:54.371Z,4.00
2019-03-13T06:56:56.706Z,4.30
2019-03-13T07:03:03.951Z,4.50
2019-03-13T07:09:19.916Z,4.60
2019-03-13T07:15:39.045Z,4.90
2019-03-13T07:21:46.014Z,5.40
2019-03-13T07:27:59.165Z,6.00
2019-03-13T07:34:06.664Z,6.50
2019-03-13T07:40:16.793Z,6.90
2019-03-13T07:46:23.736Z,7.50
2019-03-13T07:52:32.669Z,7.90
2019-03-13T07:58:36.950Z,8.00
2019-03-13T08:04:44.100Z,9.60
2019-03-13T08:10:51.111Z,11.70
2019-03-13T08:17:13.395Z,13.50
2019-03-13T08:23:17.448Z,15.20
2019-03-13T08:29:38.178Z,14.10
2019-03-13T08:35:44.968Z,12.60
2019-03-13T08:42:05.884Z,11.20
2019-03-13T08:48:22.809Z,10.60
2019-03-13T08:54:29.586Z,10.40
2019-03-13T09:00:36.629Z,10.40
2019-03-13T09:06:57.892Z,10.70
2019-03-13T09:13:02.149Z,11.60
2019-03-13T09:19:06.984Z,11.60
2019-03-13T09:25:22.861Z,11.20
2019-03-13T09:31:35.920Z,11.00
2019-03-13T09:37:56.292Z,10.60
2019-03-13T09:44:00.487Z,10.40
2019-03-13T09:50:23.847Z,10.50
2019-03-13T09:56:44.481Z,10.80
2019-03-13T10:03:04.021Z,10.90
2019-03-13T10:09:15.194Z,10.50
2019-03-13T10:15:22.208Z,10.40
2019-03-13T10:21:29.031Z,10.20
2019-03-13T10:27:49.558Z,10.10
2019-03-13T10:33:57.053Z,10.20
2019-03-13T10:40:04.238Z,10.40
2019-03-13T10:46:24.769Z,10.60
2019-03-13T10:52:42.798Z,11.00
2019-03-13T10:58:47.179Z,11.40
2019-03-13T11:04:55.299Z,12.10
2019-03-13T11:11:05.038Z,11.90
2019-03-13T11:17:25.629Z,12.10
2019-03-13T11:23:29.939Z,11.20
2019-03-13T11:29:40.326Z,11.00
2019-03-13T11:35:54.047Z,11.30
2019-03-13T11:42:15.224Z,11.50
2019-03-13T11:48:19.411Z,11.70
2019-03-13T11:54:26.482Z,11.70
2019-03-13T12:00:33.182Z,11.70
2019-03-13T12:06:54.627Z,11.60
2019-03-13T12:13:05.650Z,11.70
2019-03-13T12:19:21.855Z,11.30
2019-03-13T12:25:28.630Z,10.50
2019-03-13T12:31:36.050Z,10.70
2019-03-13T12:37:43.351Z,11.00
2019-03-13T12:43:56.479Z,11.10
2019-03-13T12:50:18.820Z,10.90
2019-03-13T12:56:33.269Z,11.10
2019-03-13T13:02:37.430Z,11.10
2019-03-13T13:08:41.684Z,11.10
2019-03-13T13:14:54.972Z,11.30
2019-03-13T13:20:57.332Z,11.70
2019-03-13T13:26:59.566Z,12.10
2019-03-13T13:33:01.763Z,12.60
2019-03-13T13:39:05.971Z,12.90
2019-03-13T13:45:32.828Z,12.90
2019-03-13T13:51:33.985Z,12.90
2019-03-13T13:57:36.391Z,12.70
2019-03-13T14:03:38.657Z,12.60
2019-03-13T14:09:40.876Z,12.70
2019-03-13T14:15:43.111Z,12.50
2019-03-13T14:21:45.320Z,12.40
2019-03-13T14:27:47.661Z,12.40
2019-03-13T14:33:50.039Z,12.20
2019-03-13T14:39:52.376Z,11.80
2019-03-13T14:45:54.579Z,11.80
2019-03-13T14:51:56.724Z,11.60
2019-03-13T14:57:58.974Z,11.30
2019-03-13T15:04:04.161Z,11.00
2019-03-13T15:10:07.720Z,10.90
2019-03-13T15:16:09.847Z,10.80
2019-03-13T15:22:12.336Z,10.80
2019-03-13T15:28:17.354Z,10.70
2019-03-13T15:34:18.544Z,10.70
2019-03-13T15:40:20.807Z,10.40
2019-03-13T15:46:23.325Z,10.20
2019-03-13T15:52:25.685Z,10.00
2019-03-13T15:58:28.101Z,9.90
2019-03-13T16:04:30.425Z,9.80
2019-03-13T16:10:32.654Z,9.70
2019-03-13T16:16:34.935Z,9.70
2019-03-13T16:22:37.094Z,9.60
2019-03-13T16:28:39.314Z,9.60
2019-03-13T16:34:41.624Z,9.60
2019-03-13T16:40:43.891Z,9.30
2019-03-13T16:46:46.137Z,9.00
2019-03-13T16:52:48.641Z,8.90
2019-03-13T16:58:50.839Z,8.90
2019-03-13T17:04:53.221Z,8.80
2019-03-13T17:10:55.615Z,8.60
2019-03-13T17:16:57.867Z,8.20
2019-03-13T17:23:00.129Z,8.00
2019-03-13T17:29:02.291Z,7.80
2019-03-13T17:35:04.803Z,7.60
2019-03-13T17:41:07.909Z,7.50
2019-03-13T17:47:10.495Z,7.20
2019-03-13T17:53:12.798Z,6.90
2019-03-13T17:59:15.007Z,6.70
2019-03-13T18:05:17.347Z,6.40
2019-03-13T18:11:19.684Z,6.10
2019-03-13T18:17:21.824Z,5.80
2019-03-13T18:23:24.067Z,5.50
2019-03-13T18:29:26.299Z,5.30
2019-03-13T18:35:28.686Z,5.10
2019-03-13T18:41:30.853Z,4.90
2019-03-13T18:47:33.224Z,4.80
2019-03-13T18:53:35.727Z,4.60
2019-03-13T18:59:38.281Z,4.60
2019-03-13T19:05:40.631Z,4.60
2019-03-13T19:11:42.813Z,4.60
2019-03-13T19:17:45.046Z,4.60
2019-03-13T19:23:47.388Z,4.50
2019-03-13T19:29:52.510Z,4.70
2019-03-13T19:35:55.760Z,4.80
2019-03-13T19:41:58.036Z,4.80
2019-03-13T19:48:01.593Z,4.70
2019-03-13T19:54:03.990Z,4.40
2019-03-13T20:00:09.717Z,4.10
2019-03-13T20:06:12.409Z,3.90
2019-03-13T20:12:15.055Z,3.60
2019-03-13T20:18:17.665Z,3.30
2019-03-13T20:24:22.011Z,3.20
2019-03-13T20:30:25.759Z,3.10
2019-03-13T20:36:28.363Z,3.00
2019-03-13T20:42:32.654Z,2.90
2019-03-13T20:48:34.796Z,2.90
2019-03-13T20:54:37.134Z,3.00
2019-03-13T21:00:39.547Z,3.00
2019-03-13T21:06:46.480Z,3.00
2019-03-13T21:12:51.684Z,2.90
2019-03-13T21:18:58.610Z,2.70
2019-03-13T21:25:02.276Z,2.60
2019-03-13T21:31:06.426Z,2.60
2019-03-13T21:37:09.889Z,2.50
2019-03-13T21:43:12.174Z,2.40
2019-03-13T21:49:15.098Z,2.30
2019-03-13T21:55:17.243Z,2.40
2019-03-13T22:01:20.672Z,2.70
2019-03-13T22:07:23.404Z,2.90
2019-03-13T22:13:25.584Z,3.10
2019-03-13T22:19:28.874Z,3.30
2019-03-13T22:25:31.078Z,3.30
2019-03-13T22:31:35.454Z,3.40
2019-03-13T22:37:37.709Z,3.50
2019-03-13T22:43:39.849Z,4.20
2019-03-13T22:49:42.072Z,4.80
2019-03-13T22:55:44.444Z,5.00
2019-03-13T23:01:47.706Z,5.20
2019-03-13T23:07:49.981Z,5.40
2019-03-13T23:13:52.195Z,5.50
2019-03-13T23:19:54.495Z,5.50
2019-03-13T23:25:56.682Z,5.70
2019-03-13T23:31:58.875Z,5.80
2019-03-13T23:38:00.983Z,5.80
2019-03-13T23:44:03.217Z,5.80
2019-03-13T23:50:05.629Z,5.90
2019-03-13T23:56:07.852Z,5.90
